createdAt,value
2023-05-12T00:00:48.743Z,514.6
2023-05-12T00:01:50.614Z,514.2
2023-05-12T00:02:52.936Z,514.3
2023-05-12T00:03:55.701Z,513.9
2023-05-12T00:04:57.837Z,514.3
2023-05-12T00:05:59.752Z,514.4
2023-05-12T00:07:01.608Z,514.4
2023-05-12T00:08:03.470Z,513.9
2023-05-12T00:09:05.430Z,514.3
2023-05-12T00:10:07.267Z,514.4
2023-05-12T00:11:09.109Z,514.4
2023-05-12T00:12:10.966Z,514.3
2023-05-12T00:13:13.049Z,514.2
2023-05-12T00:14:14.927Z,514.5
2023-05-12T00:15:16.549Z,514.5
2023-05-12T00:16:18.495Z,514.4
2023-05-12T00:17:20.678Z,514.3
2023-05-12T00:18:22.908Z,514.8
2023-05-12T00:19:24.728Z,514.5
2023-05-12T00:20:26.575Z,514.5
2023-05-12T00:21:28.426Z,514.5
2023-05-12T00:22:30.390Z,514.3
2023-05-12T00:23:32.209Z,514.6
2023-05-12T00:24:34.105Z,514.5
2023-05-12T00:25:35.942Z,514.6
2023-05-12T00:26:37.785Z,514.3
2023-05-12T00:27:39.732Z,514.5
2023-05-12T00:28:41.592Z,514.9
2023-05-12T00:29:43.541Z,514.5
2023-05-12T00:30:45.388Z,514.3
2023-05-12T00:31:47.676Z,514.6
2023-05-12T00:32:49.932Z,514.7
2023-05-12T00:33:51.771Z,514.9
2023-05-12T00:34:53.622Z,514.7
2023-05-12T00:35:55.386Z,514.6
2023-05-12T00:36:57.221Z,514.7
2023-05-12T00:37:59.162Z,514.5
2023-05-12T00:39:01.006Z,515
2023-05-12T00:40:02.878Z,514.4
2023-05-12T00:41:04.912Z,514.3
2023-05-12T00:42:06.608Z,514.4
2023-05-12T00:43:08.515Z,513.8
2023-05-12T00:44:10.363Z,514.3
2023-05-12T00:45:12.207Z,514.4
2023-05-12T00:46:14.244Z,514.3
2023-05-12T00:47:16.116Z,513.8
2023-05-12T00:48:17.850Z,514
2023-05-12T00:49:19.618Z,514.2
2023-05-12T00:50:22.606Z,514.2
2023-05-12T00:51:24.540Z,514.1
2023-05-12T00:52:26.495Z,514.5
2023-05-12T00:53:50.724Z,514.2
2023-05-12T00:54:52.672Z,513.9
2023-05-12T00:55:54.596Z,514.1
2023-05-12T00:56:59.463Z,513.9
2023-05-12T00:58:01.454Z,513.9
2023-05-12T00:59:03.281Z,513.5
2023-05-12T01:00:05.259Z,513.4
2023-05-12T01:01:07.354Z,513.5
2023-05-12T01:02:09.493Z,513.5
2023-05-12T01:03:11.683Z,513.3
2023-05-12T01:04:13.683Z,513
2023-05-12T01:05:15.523Z,512.9
2023-05-12T01:06:17.484Z,513
2023-05-12T01:07:19.324Z,512.9
2023-05-12T01:08:21.077Z,512.9
2023-05-12T01:09:23.021Z,513.2
2023-05-12T01:10:24.700Z,512.9
2023-05-12T01:11:26.556Z,512.9
2023-05-12T01:12:28.469Z,513
2023-05-12T01:13:30.172Z,512.9
2023-05-12T01:14:31.782Z,512.9
2023-05-12T01:15:33.616Z,512.7
2023-05-12T01:16:35.547Z,512.5
2023-05-12T01:17:37.984Z,512.6
2023-05-12T01:18:40.156Z,512.6
2023-05-12T01:19:42.041Z,512.7
2023-05-12T01:20:43.893Z,512.6
2023-05-12T01:21:45.712Z,512.7
2023-05-12T01:22:47.460Z,512.8
2023-05-12T01:23:49.322Z,512.9
2023-05-12T01:24:51.291Z,512.8
2023-05-12T01:25:53.137Z,512.6
2023-05-12T01:26:55.110Z,512.6
2023-05-12T01:27:57.042Z,512.8
2023-05-12T01:28:58.996Z,512.6
2023-05-12T01:30:00.854Z,512.7
2023-05-12T01:31:02.834Z,513.1
2023-05-12T01:32:04.769Z,512.5
2023-05-12T01:33:06.742Z,512.5
2023-05-12T01:34:08.660Z,512.9
2023-05-12T01:35:10.512Z,512.7
2023-05-12T01:36:12.373Z,513
2023-05-12T01:37:14.312Z,512.9
2023-05-12T01:38:16.261Z,512.9
2023-05-12T01:39:18.108Z,513.2
2023-05-12T01:40:21.377Z,513.3
2023-05-12T01:41:26.314Z,513
2023-05-12T01:42:28.302Z,513
2023-05-12T01:43:30.218Z,512.9
2023-05-12T01:44:31.993Z,513.4
2023-05-12T01:45:33.819Z,513.2
2023-05-12T01:46:36.026Z,513.1
2023-05-12T01:47:38.597Z,513.2
2023-05-12T01:48:40.486Z,513.2
2023-05-12T01:49:42.454Z,512.9
2023-05-12T01:50:44.304Z,513.1
2023-05-12T01:51:46.140Z,513.3
2023-05-12T01:52:48.093Z,513
2023-05-12T01:53:50.061Z,513.2
2023-05-12T01:54:52.003Z,513
2023-05-12T01:55:53.845Z,512.8
2023-05-12T01:56:55.785Z,513
2023-05-12T01:57:57.669Z,512.8
2023-05-12T01:58:59.622Z,513
2023-05-12T02:00:01.468Z,513.2
2023-05-12T02:01:03.308Z,513.1
2023-05-12T02:02:05.450Z,513.1
2023-05-12T02:03:07.773Z,512.9
2023-05-12T02:04:10.300Z,513.2
2023-05-12T02:05:12.107Z,512.8
2023-05-12T02:06:13.882Z,512.7
2023-05-12T02:07:15.764Z,512.9
2023-05-12T02:08:17.694Z,513.1
2023-05-12T02:09:19.535Z,513
2023-05-12T02:10:22.587Z,512.9
2023-05-12T02:11:24.571Z,512.9
2023-05-12T02:12:26.423Z,513.1
2023-05-12T02:13:28.400Z,513.2
2023-05-12T02:14:30.216Z,512.9
2023-05-12T02:15:32.175Z,512.9
2023-05-12T02:16:34.382Z,513.2
2023-05-12T02:17:36.407Z,513
2023-05-12T02:18:41.249Z,513
2023-05-12T02:19:43.064Z,513.1
2023-05-12T02:20:45.088Z,513.1
2023-05-12T02:21:46.964Z,513.4
2023-05-12T02:22:48.833Z,513.2
2023-05-12T02:23:50.553Z,513.3
2023-05-12T02:24:52.417Z,513.4
2023-05-12T02:25:54.356Z,513.7
2023-05-12T02:26:56.110Z,513.3
2023-05-12T02:27:57.974Z,513.2
2023-05-12T02:28:59.832Z,513.3
2023-05-12T02:30:01.768Z,513.1
2023-05-12T02:31:03.605Z,513.3
2023-05-12T02:32:06.189Z,513.3
2023-05-12T02:33:08.226Z,513.4
2023-05-12T02:34:10.084Z,513.4
2023-05-12T02:35:11.934Z,513.3
2023-05-12T02:36:13.787Z,513.6
2023-05-12T02:37:15.627Z,513.3
2023-05-12T02:38:17.480Z,513.4
2023-05-12T02:39:19.199Z,513.3
2023-05-12T02:40:21.876Z,513.5
2023-05-12T02:41:23.855Z,513.4
2023-05-12T02:42:25.797Z,513.2
2023-05-12T02:43:27.498Z,513.1
2023-05-12T02:44:29.425Z,513.1
2023-05-12T02:45:31.496Z,513.3
2023-05-12T02:46:33.515Z,513.3
2023-05-12T02:47:35.293Z,513.2
2023-05-12T02:48:37.099Z,513.4
2023-05-12T02:49:38.964Z,513.3
2023-05-12T02:50:40.919Z,513
2023-05-12T02:51:42.771Z,513.1
2023-05-12T02:52:44.607Z,513.6
2023-05-12T02:53:46.362Z,513.1
2023-05-12T02:54:48.143Z,513.7
2023-05-12T02:55:49.967Z,513.3
2023-05-12T02:56:51.808Z,513.9
2023-05-12T02:57:53.664Z,513.6
2023-05-12T02:58:55.612Z,513.6
2023-05-12T02:59:57.482Z,513.4
2023-05-12T03:01:12.352Z,513.7
2023-05-12T03:02:14.407Z,513.5
2023-05-12T03:03:16.682Z,513.8
2023-05-12T03:04:18.579Z,514
2023-05-12T03:05:20.324Z,514
2023-05-12T03:06:22.097Z,513.8
2023-05-12T03:07:23.933Z,513.7
2023-05-12T03:08:25.793Z,513.1
2023-05-12T03:09:27.736Z,513.3
2023-05-12T03:10:29.591Z,513.1
2023-05-12T03:11:31.535Z,513.2
2023-05-12T03:12:33.396Z,513.1
2023-05-12T03:13:35.337Z,512.9
2023-05-12T03:14:37.155Z,512.9
2023-05-12T03:15:39.068Z,512.6
2023-05-12T03:16:41.229Z,512.7
2023-05-12T03:17:43.059Z,512.4
2023-05-12T03:18:45.201Z,512.6
2023-05-12T03:19:47.157Z,512.5
2023-05-12T03:20:49.104Z,512.6
2023-05-12T03:21:50.862Z,512.4
2023-05-12T03:22:52.709Z,512.8
2023-05-12T03:23:54.558Z,512.4
2023-05-12T03:24:56.500Z,513
2023-05-12T03:25:58.352Z,512.4
2023-05-12T03:27:00.213Z,512.8
2023-05-12T03:28:01.977Z,512.9
2023-05-12T03:29:03.902Z,512.3
2023-05-12T03:30:05.853Z,512.3
2023-05-12T03:31:08.055Z,512.2
2023-05-12T03:32:09.973Z,512.3
2023-05-12T03:33:11.827Z,512.3
2023-05-12T03:34:13.581Z,512.1
2023-05-12T03:35:15.511Z,512
2023-05-12T03:36:17.399Z,511.9
2023-05-12T03:37:19.228Z,511.7
2023-05-12T03:38:21.059Z,511.8
2023-05-12T03:39:22.914Z,511.8
2023-05-12T03:40:24.761Z,511.9
2023-05-12T03:41:26.618Z,511.2
2023-05-12T03:42:28.263Z,511.4
2023-05-12T03:43:30.105Z,511.1
2023-05-12T03:44:31.851Z,511
2023-05-12T03:45:33.581Z,511.5
2023-05-12T03:46:36.152Z,511.1
2023-05-12T03:47:38.748Z,511.1
2023-05-12T03:48:41.107Z,511.2
2023-05-12T03:49:43.054Z,511.2
2023-05-12T03:50:47.775Z,511.1
2023-05-12T03:51:49.532Z,511.3
2023-05-12T03:52:51.277Z,511.3
2023-05-12T03:53:53.118Z,511.2
2023-05-12T03:54:54.887Z,511.5
2023-05-12T03:55:59.586Z,511.7
2023-05-12T03:57:01.430Z,511.3
2023-05-12T03:58:03.325Z,511.4
2023-05-12T03:59:05.128Z,510.9
2023-05-12T04:00:06.824Z,511.2
2023-05-12T04:01:08.626Z,511
2023-05-12T04:02:10.821Z,511.1
2023-05-12T04:03:13.496Z,511.3
2023-05-12T04:04:15.794Z,511.1
2023-05-12T04:05:17.762Z,511.1
2023-05-12T04:06:19.488Z,510.9
2023-05-12T04:07:21.110Z,510.8
2023-05-12T04:08:23.009Z,511.1
2023-05-12T04:09:24.583Z,510.9
2023-05-12T04:10:26.401Z,510.8
2023-05-12T04:11:28.154Z,510.7
2023-05-12T04:12:31.534Z,510.3
2023-05-12T04:13:33.660Z,510.2
2023-05-12T04:14:43.969Z,510.2
2023-05-12T04:15:48.729Z,509.8
2023-05-12T04:16:50.813Z,510
2023-05-12T04:17:52.938Z,509.7
2023-05-12T04:18:54.941Z,509.8
2023-05-12T04:19:56.546Z,510
2023-05-12T04:20:58.129Z,509.9
2023-05-12T04:21:59.770Z,510
2023-05-12T04:23:01.388Z,510.1
2023-05-12T04:24:03.152Z,510
2023-05-12T04:25:05.002Z,510.3
2023-05-12T04:26:06.750Z,510.4
2023-05-12T04:27:08.740Z,510.3
2023-05-12T04:28:12.835Z,510.7
2023-05-12T04:29:14.666Z,510.1
2023-05-12T04:30:16.504Z,510.1
2023-05-12T04:31:18.578Z,510.1
2023-05-12T04:32:20.943Z,510.3
2023-05-12T04:33:22.910Z,510
2023-05-12T04:34:24.768Z,510.3
2023-05-12T04:35:26.669Z,510.2
2023-05-12T04:36:28.535Z,510.3
2023-05-12T04:37:30.382Z,510.4
2023-05-12T04:38:32.227Z,510.2
2023-05-12T04:39:33.847Z,510.3
2023-05-12T04:40:35.776Z,510.2
2023-05-12T04:41:37.332Z,510.4
2023-05-12T04:42:39.035Z,510.4
2023-05-12T04:44:54.393Z,510.7
2023-05-12T04:46:00.744Z,510.8
2023-05-12T04:47:02.428Z,510.9
2023-05-12T04:48:04.157Z,510.6
2023-05-12T04:49:05.830Z,510.9
2023-05-12T04:50:07.625Z,510.5
2023-05-12T04:51:09.680Z,510.6
2023-05-12T04:52:11.433Z,510.3
2023-05-12T04:53:13.026Z,510
2023-05-12T04:54:14.576Z,510.2
2023-05-12T04:55:16.448Z,510.2
2023-05-12T04:56:18.125Z,510
2023-05-12T04:57:19.747Z,510.4
2023-05-12T04:58:21.348Z,510.2
2023-05-12T04:59:22.944Z,510.3
2023-05-12T05:00:24.580Z,510.2
2023-05-12T05:01:26.478Z,510
2023-05-12T05:02:28.694Z,510.2
2023-05-12T05:03:34.449Z,509.9
2023-05-12T05:04:36.167Z,509.4
2023-05-12T05:05:37.959Z,509.9
2023-05-12T05:06:39.733Z,509.8
2023-05-12T05:07:41.296Z,509.9
2023-05-12T05:08:42.896Z,509.7
2023-05-12T05:09:44.621Z,509.8
2023-05-12T05:10:46.481Z,509.8
2023-05-12T05:11:48.317Z,509.8
2023-05-12T05:12:50.166Z,509.9
2023-05-12T05:13:51.919Z,509.9
2023-05-12T05:14:53.863Z,510.1
2023-05-12T05:15:55.935Z,509.7
2023-05-12T05:16:57.887Z,509.8
2023-05-12T05:18:02.730Z,509.9
2023-05-12T05:19:38.997Z,509.9
2023-05-12T05:20:59.763Z,509.7
2023-05-12T05:22:01.517Z,510
2023-05-12T05:23:03.266Z,509.9
2023-05-12T05:24:09.122Z,509.9
2023-05-12T05:25:11.058Z,509.4
2023-05-12T05:26:12.997Z,509.6
2023-05-12T05:27:14.837Z,509.7
2023-05-12T05:28:16.690Z,509.2
2023-05-12T05:29:21.534Z,509.2
2023-05-12T05:30:23.382Z,508.7
2023-05-12T05:31:25.338Z,509.2
2023-05-12T05:32:27.387Z,509.1
2023-05-12T05:33:29.218Z,509.1
2023-05-12T05:34:31.310Z,509.3
2023-05-12T05:35:33.123Z,509.1
2023-05-12T05:36:38.004Z,509.3
2023-05-12T05:37:39.725Z,509.1
2023-05-12T05:38:41.287Z,508.8
2023-05-12T05:39:43.042Z,508.9
2023-05-12T05:40:55.077Z,508.9
2023-05-12T05:41:56.653Z,508.5
2023-05-12T05:42:58.217Z,508.5
2023-05-12T05:43:59.823Z,508.9
2023-05-12T05:45:01.476Z,508.8
2023-05-12T05:46:03.077Z,508.8
2023-05-12T05:47:05.529Z,508.6
2023-05-12T05:48:07.362Z,508.6
2023-05-12T05:49:09.077Z,508.8
2023-05-12T05:50:10.908Z,508.2
2023-05-12T05:51:12.766Z,508.5
2023-05-12T05:52:14.775Z,508.3
2023-05-12T05:53:16.658Z,508.3
2023-05-12T05:54:18.402Z,508.5
2023-05-12T05:55:21.341Z,508.4
2023-05-12T05:56:23.340Z,508.2
2023-05-12T05:57:25.011Z,508.3
2023-05-12T05:58:26.558Z,508.6
2023-05-12T05:59:28.146Z,508.4
2023-05-12T06:00:30.049Z,508.6
2023-05-12T06:01:32.100Z,508.5
2023-05-12T06:02:34.606Z,508.2
2023-05-12T06:03:36.959Z,508.5
2023-05-12T06:04:38.746Z,508
2023-05-12T06:05:40.631Z,508.3
2023-05-12T06:06:42.445Z,508.1
2023-05-12T06:07:44.391Z,508.2
2023-05-12T06:08:46.162Z,508.5
2023-05-12T06:09:47.889Z,508.3
2023-05-12T06:10:49.766Z,508.3
2023-05-12T06:11:51.625Z,508.6
2023-05-12T06:12:53.443Z,508
2023-05-12T06:13:55.193Z,508.2
2023-05-12T06:14:56.953Z,507.9
2023-05-12T06:15:58.591Z,508.1
2023-05-12T06:17:00.689Z,508.4
2023-05-12T06:18:02.687Z,507.9
2023-05-12T06:19:04.760Z,508.1
2023-05-12T06:20:06.429Z,508
2023-05-12T06:21:08.050Z,508
2023-05-12T06:22:09.619Z,507.8
2023-05-12T06:23:11.293Z,507.2
2023-05-12T06:24:12.869Z,507.1
2023-05-12T06:25:14.565Z,507.2
2023-05-12T06:26:16.194Z,507.1
2023-05-12T06:27:20.886Z,507.3
2023-05-12T06:28:22.572Z,507.3
2023-05-12T06:29:24.371Z,507.2
2023-05-12T06:30:26.334Z,507.1
2023-05-12T06:31:28.406Z,507.3
2023-05-12T06:32:30.344Z,507.1
2023-05-12T06:33:32.001Z,506.9
2023-05-12T06:34:33.638Z,506.9
2023-05-12T06:35:35.328Z,506.9
2023-05-12T06:36:36.954Z,507.1
2023-05-12T06:37:38.572Z,506.9
2023-05-12T06:38:40.540Z,506.4
2023-05-12T06:39:42.292Z,506.5
2023-05-12T06:40:43.986Z,506.6
2023-05-12T06:41:45.563Z,506.8
2023-05-12T06:42:47.130Z,506.5
2023-05-12T06:43:48.811Z,506.3
2023-05-12T06:44:50.813Z,506.4
2023-05-12T06:45:52.924Z,506.4
2023-05-12T06:46:54.901Z,506.6
2023-05-12T06:47:56.776Z,506.5
2023-05-12T06:48:58.701Z,506.2
2023-05-12T06:50:00.482Z,506.3
2023-05-12T06:51:02.099Z,506.4
2023-05-12T06:52:03.824Z,505.9
2023-05-12T06:53:05.473Z,505.8
2023-05-12T06:54:07.684Z,505.5
2023-05-12T06:55:09.505Z,505.6
2023-05-12T06:56:11.376Z,505.9
2023-05-12T06:57:13.308Z,505.6
2023-05-12T06:58:15.164Z,505.7
2023-05-12T06:59:17.022Z,505.6
2023-05-12T07:00:18.751Z,506
2023-05-12T07:01:20.916Z,505.9
2023-05-12T07:02:22.983Z,506.4
2023-05-12T07:03:24.986Z,506.5
2023-05-12T07:04:27.178Z,506.3
2023-05-12T07:05:29.199Z,506.5
2023-05-12T07:06:30.985Z,506.5
2023-05-12T07:07:32.769Z,506.1
2023-05-12T07:08:34.574Z,506.2
2023-05-12T07:09:36.667Z,506.1
2023-05-12T07:10:38.351Z,505.8
2023-05-12T07:11:40.327Z,505.9
2023-05-12T07:12:42.131Z,505.8
2023-05-12T07:13:43.931Z,505.9
2023-05-12T07:14:45.752Z,506.3
2023-05-12T07:15:47.858Z,505.8
2023-05-12T07:16:49.692Z,505.8
2023-05-12T07:17:51.788Z,505.9
2023-05-12T07:18:53.808Z,505.9
2023-05-12T07:19:55.745Z,505.9
2023-05-12T07:20:57.596Z,506.1
2023-05-12T07:21:59.307Z,506
2023-05-12T07:23:00.927Z,505.6
2023-05-12T07:24:02.635Z,505.9
2023-05-12T07:25:04.958Z,505.4
2023-05-12T07:26:06.764Z,505.7
2023-05-12T07:27:08.602Z,505.2
2023-05-12T07:28:10.344Z,505.5
2023-05-12T07:29:14.846Z,505.2
2023-05-12T07:30:16.775Z,505.1
2023-05-12T07:31:18.697Z,505.7
2023-05-12T07:32:20.448Z,505.8
2023-05-12T07:33:22.281Z,505.6
2023-05-12T07:34:23.858Z,505.6
2023-05-12T07:35:25.715Z,506
2023-05-12T07:36:27.328Z,505.8
2023-05-12T07:37:29.234Z,506.2
2023-05-12T07:38:31.084Z,506.1
2023-05-12T07:39:32.946Z,505.9
2023-05-12T07:40:34.825Z,505.7
2023-05-12T07:41:36.519Z,505.5
2023-05-12T07:42:38.389Z,506
2023-05-12T07:43:40.343Z,505.2
2023-05-12T07:44:42.287Z,505.5
2023-05-12T07:45:44.068Z,505.3
2023-05-12T07:46:45.905Z,505.3
2023-05-12T07:47:47.974Z,505.4
2023-05-12T07:48:50.025Z,505.2
2023-05-12T07:49:51.892Z,505.2
2023-05-12T07:50:53.602Z,505.3
2023-05-12T07:51:55.453Z,505.4
2023-05-12T07:52:57.314Z,505.7
2023-05-12T07:53:59.272Z,505.7
2023-05-12T07:55:01.226Z,505.4
2023-05-12T07:56:03.341Z,505.5
2023-05-12T07:57:05.155Z,505.7
2023-05-12T07:58:06.966Z,505.5
2023-05-12T07:59:08.929Z,505.5
2023-05-12T08:00:10.672Z,505.6
2023-05-12T08:01:12.424Z,505.5
2023-05-12T08:02:14.571Z,505.8
2023-05-12T08:03:17.014Z,506.1
2023-05-12T08:04:19.124Z,506.1
2023-05-12T08:05:22.190Z,505.7
2023-05-12T08:06:25.666Z,506
2023-05-12T08:07:27.369Z,505.6
2023-05-12T08:08:29.187Z,506
2023-05-12T08:09:30.799Z,505.6
2023-05-12T08:10:32.433Z,505.8
2023-05-12T08:11:34.411Z,505.8
2023-05-12T08:12:36.354Z,505.8
2023-05-12T08:13:38.291Z,505.8
2023-05-12T08:14:40.164Z,505.7
2023-05-12T08:15:41.898Z,505.7
2023-05-12T08:16:44.412Z,505.6
2023-05-12T08:17:46.474Z,505.6
2023-05-12T08:18:48.622Z,505.7
2023-05-12T08:19:50.425Z,505.5
2023-05-12T08:20:52.264Z,505.5
2023-05-12T08:21:54.019Z,505.5
2023-05-12T08:22:55.876Z,505.6
2023-05-12T08:23:57.630Z,506.1
2023-05-12T08:24:59.440Z,506
2023-05-12T08:26:01.921Z,505.8
2023-05-12T08:27:04.771Z,505.7
2023-05-12T08:28:06.562Z,505.9
2023-05-12T08:29:08.415Z,505.5
2023-05-12T08:30:10.362Z,505.7
2023-05-12T08:31:12.365Z,505.4
2023-05-12T08:32:14.661Z,505.7
2023-05-12T08:33:16.426Z,505.4
2023-05-12T08:34:18.084Z,505.6
2023-05-12T08:35:20.749Z,505.7
2023-05-12T08:36:22.878Z,505.8
2023-05-12T08:37:24.635Z,505.6
2023-05-12T08:38:26.508Z,505.4
2023-05-12T08:39:28.346Z,505.5
2023-05-12T08:40:30.200Z,506
2023-05-12T08:41:32.159Z,505.8
2023-05-12T08:42:34.140Z,505.6
2023-05-12T08:43:36.152Z,505.9
2023-05-12T08:44:37.793Z,506
2023-05-12T08:45:39.464Z,505.7
2023-05-12T08:46:44.662Z,506
2023-05-12T08:47:46.831Z,506.3
2023-05-12T08:48:48.723Z,505.9
2023-05-12T08:49:53.072Z,506
2023-05-12T08:50:54.939Z,506.2
2023-05-12T08:51:58.968Z,505.9
2023-05-12T08:53:00.598Z,506.5
2023-05-12T08:54:02.203Z,506.3
2023-05-12T08:55:04.388Z,506.3
2023-05-12T08:57:19.825Z,506.5
2023-05-12T08:58:42.745Z,506.1
2023-05-12T08:59:44.759Z,506.4
2023-05-12T09:00:46.726Z,506.4
2023-05-12T09:01:48.893Z,506.6
2023-05-12T09:02:55.993Z,506.4
2023-05-12T09:03:58.136Z,506.4
2023-05-12T09:05:00.043Z,506.6
2023-05-12T09:06:01.786Z,506.1
2023-05-12T09:07:03.558Z,505.9
2023-05-12T09:08:05.398Z,506.4
2023-05-12T09:09:07.155Z,506.5
2023-05-12T09:10:09.211Z,506.9
2023-05-12T09:11:11.144Z,507
2023-05-12T09:12:17.037Z,507.2
2023-05-12T09:13:18.717Z,507.1
2023-05-12T09:14:20.739Z,508.1
2023-05-12T09:15:23.405Z,507.6
2023-05-12T09:16:25.706Z,507.6
2023-05-12T09:17:27.666Z,507.8
2023-05-12T09:18:29.465Z,507.7
2023-05-12T09:19:31.366Z,507.9
2023-05-12T09:20:33.558Z,507.9
2023-05-12T09:21:36.006Z,507.8
2023-05-12T09:22:37.769Z,507.8
2023-05-12T09:23:41.216Z,507.9
2023-05-12T09:24:42.949Z,507.5
2023-05-12T09:25:44.670Z,507.8
2023-05-12T09:26:46.591Z,507.9
2023-05-12T09:27:48.536Z,507.6
2023-05-12T09:28:50.381Z,507.5
2023-05-12T09:30:00.572Z,507.5
2023-05-12T09:31:02.351Z,507.5
2023-05-12T09:32:04.926Z,507.8
2023-05-12T09:33:06.958Z,507.8
2023-05-12T09:34:08.774Z,508
2023-05-12T09:35:10.892Z,508
2023-05-12T09:36:12.760Z,508.3
2023-05-12T09:37:16.244Z,508.2
2023-05-12T09:38:17.951Z,508.2
2023-05-12T09:39:19.762Z,508.3
2023-05-12T09:40:21.691Z,508.4
2023-05-12T09:41:23.648Z,508.2
2023-05-12T09:42:25.427Z,508.4
2023-05-12T09:43:27.059Z,508.2
2023-05-12T09:44:28.732Z,508.5
2023-05-12T09:45:30.552Z,508.3
2023-05-12T09:46:32.659Z,508.3
2023-05-12T09:47:34.865Z,508.5
2023-05-12T09:48:36.550Z,508.5
2023-05-12T09:49:38.206Z,508.2
2023-05-12T09:50:49.092Z,507.7
2023-05-12T09:51:50.936Z,507.8
2023-05-12T09:52:52.815Z,507.6
2023-05-12T09:53:54.751Z,507.8
2023-05-12T09:54:56.367Z,507.4
2023-05-12T09:55:57.975Z,508.4
2023-05-12T09:56:59.802Z,508.4
2023-05-12T09:58:01.463Z,507.9
2023-05-12T09:59:03.100Z,508.2
2023-05-12T10:00:46.510Z,508.3
2023-05-12T10:02:00.751Z,507.8
2023-05-12T10:03:02.719Z,508
2023-05-12T10:04:04.413Z,508.2
2023-05-12T10:05:06.684Z,508.7
2023-05-12T10:06:08.639Z,508.8
2023-05-12T10:07:10.325Z,508.8
2023-05-12T10:08:12.050Z,509.4
2023-05-12T10:09:13.742Z,509.6
2023-05-12T10:10:15.707Z,509.8
2023-05-12T10:11:17.523Z,509.5
2023-05-12T10:12:19.225Z,509.2
2023-05-12T10:13:20.824Z,509.6
2023-05-12T10:14:22.502Z,509.6
2023-05-12T10:15:24.193Z,509.8
2023-05-12T10:16:26.092Z,509.6
2023-05-12T10:17:28.519Z,509.8
2023-05-12T10:18:30.331Z,509.6
2023-05-12T10:19:31.943Z,510.1
2023-05-12T10:20:33.615Z,509.8
2023-05-12T10:21:35.243Z,510.2
2023-05-12T10:22:36.838Z,509.8
2023-05-12T10:23:38.813Z,509.9
2023-05-12T10:24:40.441Z,509.9
2023-05-12T10:25:42.106Z,509.6
2023-05-12T10:26:43.711Z,509.5
2023-05-12T10:27:45.384Z,509.3
2023-05-12T10:28:47.043Z,509.6
2023-05-12T10:29:52.988Z,509.4
2023-05-12T10:30:55.473Z,509.7
2023-05-12T10:31:57.190Z,510.7
2023-05-12T10:32:59.221Z,511.1
2023-05-12T10:34:00.975Z,510
2023-05-12T10:35:02.630Z,510.1
2023-05-12T10:36:04.245Z,510.6
2023-05-12T10:37:05.831Z,510.4
2023-05-12T10:38:07.528Z,510.5
2023-05-12T10:39:09.489Z,510.2
2023-05-12T10:40:11.174Z,510.6
2023-05-12T10:41:12.793Z,510.5
2023-05-12T10:42:14.546Z,510.5
2023-05-12T10:43:16.211Z,510.9
2023-05-12T10:44:18.016Z,511
2023-05-12T10:45:21.295Z,510.9
2023-05-12T10:46:23.382Z,511.3
2023-05-12T10:47:25.956Z,511.5
2023-05-12T10:48:28.105Z,511.8
2023-05-12T10:49:29.751Z,511.6
2023-05-12T10:50:31.555Z,511.6
2023-05-12T10:51:33.353Z,511.7
2023-05-12T10:52:35.048Z,511.6
2023-05-12T10:53:55.275Z,511.7
2023-05-12T10:54:57.263Z,511.8
2023-05-12T10:56:00.108Z,511.9
2023-05-12T10:57:03.550Z,511.5
2023-05-12T10:58:07.422Z,511.6
2023-05-12T10:59:11.238Z,511.5
2023-05-12T11:00:16.173Z,511.9
2023-05-12T11:01:20.569Z,512
2023-05-12T11:02:28.038Z,511.5
2023-05-12T11:03:35.856Z,511.3
2023-05-12T11:04:38.550Z,511
2023-05-12T11:05:42.286Z,510.4
2023-05-12T11:06:48.875Z,510.3
2023-05-12T11:07:54.630Z,510.7
2023-05-12T11:09:01.107Z,510.6
2023-05-12T11:10:07.814Z,510.7
2023-05-12T11:11:11.492Z,511
2023-05-12T11:12:13.204Z,510.7
2023-05-12T11:13:15.979Z,510.7
2023-05-12T11:14:17.629Z,510.7
2023-05-12T11:15:20.180Z,510.4
2023-05-12T11:16:22.251Z,510.3
2023-05-12T11:17:24.030Z,510.6
2023-05-12T11:18:25.808Z,510.5
2023-05-12T11:19:27.592Z,510.4
2023-05-12T11:20:31.563Z,510.2
2023-05-12T11:21:33.162Z,509.9
2023-05-12T11:22:34.767Z,510
2023-05-12T11:23:36.612Z,510
2023-05-12T11:24:38.295Z,510.1
2023-05-12T11:25:44.825Z,510.3
2023-05-12T11:26:46.555Z,510.3
2023-05-12T11:27:48.213Z,510.4
2023-05-12T11:28:49.898Z,510.2
2023-05-12T11:29:51.705Z,510.1
2023-05-12T11:30:56.426Z,510
2023-05-12T11:31:58.415Z,509.9
2023-05-12T11:33:00.753Z,510.2
2023-05-12T11:34:14.009Z,509.8
2023-05-12T11:35:16.074Z,510.3
2023-05-12T11:36:21.706Z,510.2
2023-05-12T11:37:23.546Z,510.1
2023-05-12T11:38:25.218Z,510.1
2023-05-12T11:39:27.046Z,509.9
2023-05-12T11:40:28.855Z,510
2023-05-12T11:41:30.856Z,510
2023-05-12T11:42:32.858Z,510.2
2023-05-12T11:43:34.600Z,509.8
2023-05-12T11:44:36.266Z,509.5
2023-05-12T11:45:38.213Z,509.5
2023-05-12T11:46:39.968Z,509.9
2023-05-12T11:47:41.821Z,509.6
2023-05-12T11:48:43.654Z,509.9
2023-05-12T11:49:45.504Z,509.9
2023-05-12T11:50:47.649Z,509.5
2023-05-12T11:51:49.455Z,509.8
2023-05-12T11:52:51.274Z,509.9
2023-05-12T11:53:54.158Z,509.7
2023-05-12T11:54:56.086Z,509.8
2023-05-12T11:55:57.871Z,509.9
2023-05-12T11:56:59.717Z,509.9
2023-05-12T11:58:01.476Z,509.8
2023-05-12T11:59:03.401Z,510.1
2023-05-12T12:00:05.174Z,510.3
2023-05-12T12:01:06.835Z,510.1
2023-05-12T12:02:08.699Z,509.7
2023-05-12T12:03:11.747Z,509.8
2023-05-12T12:04:13.643Z,509.9
2023-05-12T12:05:15.315Z,509.7
2023-05-12T12:06:17.315Z,510
2023-05-12T12:07:19.084Z,509.7
2023-05-12T12:08:20.858Z,509.6
2023-05-12T12:09:22.714Z,509.9
2023-05-12T12:10:24.573Z,509.5
2023-05-12T12:11:26.400Z,509.8
2023-05-12T12:12:28.193Z,509.7
2023-05-12T12:13:30.110Z,509.7
2023-05-12T12:14:31.838Z,509.8
2023-05-12T12:15:33.606Z,509.2
2023-05-12T12:16:35.912Z,510.1
2023-05-12T12:17:38.084Z,509.6
2023-05-12T12:18:40.132Z,509.4
2023-05-12T12:19:42.023Z,509.5
2023-05-12T12:20:44.000Z,509.2
2023-05-12T12:21:48.736Z,509.2
2023-05-12T12:22:50.390Z,509
2023-05-12T12:23:52.500Z,509.3
2023-05-12T12:24:54.238Z,509.5
2023-05-12T12:25:56.086Z,509.3
2023-05-12T12:26:58.052Z,509.5
2023-05-12T12:27:59.901Z,509.5
2023-05-12T12:29:01.640Z,509.3
2023-05-12T12:30:03.409Z,509.4
2023-05-12T12:31:05.246Z,509.5
2023-05-12T12:32:07.195Z,509.7
2023-05-12T12:33:09.507Z,509.6
2023-05-12T12:34:11.346Z,509.7
2023-05-12T12:35:13.048Z,510
2023-05-12T12:36:14.771Z,509.6
2023-05-12T12:37:16.852Z,509.3
2023-05-12T12:38:19.001Z,509.2
2023-05-12T12:39:20.857Z,509.4
2023-05-12T12:40:22.805Z,509.5
2023-05-12T12:41:24.666Z,509.2
2023-05-12T12:42:26.511Z,508.9
2023-05-12T12:43:28.368Z,509.3
2023-05-12T12:44:30.218Z,509.3
2023-05-12T12:45:31.982Z,509.3
2023-05-12T12:46:33.855Z,509.5
2023-05-12T12:47:35.878Z,509.4
2023-05-12T12:48:37.533Z,509.2
2023-05-12T12:49:42.465Z,509.4
2023-05-12T12:50:44.283Z,509.4
2023-05-12T12:51:47.873Z,509.1
2023-05-12T12:52:49.750Z,509.5
2023-05-12T12:53:51.571Z,509.3
2023-05-12T12:54:53.529Z,509
2023-05-12T12:55:55.392Z,509
2023-05-12T12:56:57.172Z,509.3
2023-05-12T12:57:58.776Z,509.3
2023-05-12T12:59:02.857Z,509.6
2023-05-12T13:00:04.828Z,509.7
2023-05-12T13:01:06.821Z,510
2023-05-12T13:02:08.916Z,510.1
2023-05-12T13:03:11.116Z,509.5
2023-05-12T13:04:12.943Z,510
2023-05-12T13:05:14.715Z,510
2023-05-12T13:06:16.570Z,510
2023-05-12T13:07:18.432Z,510
2023-05-12T13:08:20.371Z,509.9
2023-05-12T13:09:22.303Z,510
2023-05-12T13:10:24.112Z,510.3
2023-05-12T13:11:25.997Z,510.5
2023-05-12T13:12:27.639Z,510.7
2023-05-12T13:13:29.253Z,510.8
2023-05-12T13:14:31.139Z,510.7
2023-05-12T13:15:32.998Z,511
2023-05-12T13:16:34.956Z,511.1
2023-05-12T13:17:37.065Z,511.1
2023-05-12T13:18:39.187Z,511
2023-05-12T13:19:40.990Z,511
2023-05-12T13:20:42.788Z,510.7
2023-05-12T13:21:44.590Z,510.8
2023-05-12T13:22:46.457Z,511.3
2023-05-12T13:23:48.523Z,511.4
2023-05-12T13:24:50.360Z,511.3
2023-05-12T13:25:52.269Z,511.6
2023-05-12T13:26:54.145Z,511.5
2023-05-12T13:27:55.900Z,511.6
2023-05-12T13:28:57.744Z,511.8
2023-05-12T13:29:59.608Z,511.8
2023-05-12T13:31:01.584Z,512.1